CYWG/YWG METAR and TAF weather

Enter ICAO airport designator
Station Type Date Time Source
CYWG METAR 2019/02/23 02:00 UTC NOAA

CYWG 230200Z 18013KT 15SM FEW210 M17/M20 A3023 RMK CI1 SLP262


Station Type Date Time Source
CYWG Decoded METAR 2019/02/23 02:00 UTC NOAA

Winnipeg Int. Airportman., Canada (CYWG) 49-54N 097-14W 239M
Feb 22, 2019 - 09:00 PM EST / 2019.02.23 0200 UTC
Wind: from the S (180 degrees) at 15 MPH (13 KT):0
Visibility: 15 mile(s):0
Sky conditions: mostly clear
Temperature: 1 F (-17 C)
Windchill: -18 F (-28 C):2
Dew Point: -4 F (-20 C)
Relative Humidity: 77%
Pressure (altimeter): 30.23 in. Hg (1023 hPa)
ob: CYWG 230200Z 18013KT 15SM FEW210 M17/M20 A3023 RMK CI1 SLP262
cycle: 2

Station Type Date Time Source
CYWG TAF 2019/02/22 18:45 UTC NOAA

TAF CYWG 221742Z 2218/2318 21006KT P6SM FEW040 FEW220
FM230000 18010KT P6SM SKC
FM230600 16008KT P6SM FEW040 SCT090 BKN220
FM230900 12006KT 4SM -SN FEW015 OVC030
RMK NXT FCST BY 230000Z


Example: see airport list